Time;durP1;ratioP1;P1;durP2;ratioP2;P2;SDS_P1;SDS_P2;PMS_P1;PMS_P2;Temp;Humidity;BMP_temperature;BMP_pressure;BME280_temperature;BME280_humidity;BME280_pressure;Samples;Min_cycle;Max_cycle;Signal;HPM_P1;HPM_P2
2022/10/24 00:00:00;;;;;;;4.80;2.17;;;;;;;1.90;96.97;100980.69;4903263;29;20067;-77
2022/10/24 00:02:26;;;;;;;3.27;2.00;;;;;;;2.01;96.80;101009.69;4920425;29;20296;-78
2022/10/24 00:04:52;;;;;;;2.97;2.03;;;;;;;2.00;96.93;101013.25;4903696;29;20376;-78
2022/10/24 00:07:17;;;;;;;2.53;2.10;;;;;;;1.93;97.14;101014.63;4920278;29;20032;-78
2022/10/24 00:09:43;;;;;;;4.17;3.03;;;;;;;1.90;97.23;101006.09;4903042;29;20024;-77
2022/10/24 00:12:08;;;;;;;3.13;2.20;;;;;;;1.88;97.40;101021.97;4920752;29;20032;-77
2022/10/24 00:14:36;;;;;;;3.60;2.17;;;;;;;1.85;97.42;101030.88;4920710;29;20048;-75
2022/10/24 00:17:02;;;;;;;2.43;1.90;;;;;;;1.81;97.45;101018.06;4919678;29;20283;-77
2022/10/24 00:19:27;;;;;;;1.60;1.50;;;;;;;1.82;97.57;101030.25;4921306;29;20264;-78
2022/10/24 00:21:53;;;;;;;3.63;1.90;;;;;;;1.75;97.22;101019.31;4921201;29;20304;-79
2022/10/24 00:24:19;;;;;;;4.33;1.90;;;;;;;1.73;97.44;101030.81;4921540;29;20477;-76
2022/10/24 00:26:44;;;;;;;4.10;2.50;;;;;;;1.71;97.49;101027.44;4903152;29;20508;-76
2022/10/24 00:29:10;;;;;;;3.23;1.70;;;;;;;1.72;97.60;101039.63;4923595;29;20044;-77
2022/10/24 00:31:37;;;;;;;2.17;1.97;;;;;;;1.73;97.24;101041.31;4921969;29;20036;-79
2022/10/24 00:34:03;;;;;;;9.03;3.43;;;;;;;1.66;97.89;101029.53;4922779;29;20279;-77
2022/10/24 00:36:29;;;;;;;2.33;1.83;;;;;;;1.63;97.62;101017.47;4922804;29;20264;-77
2022/10/24 00:38:55;;;;;;;3.40;2.27;;;;;;;1.67;97.29;101033.84;4926316;29;20276;-78
2022/10/24 00:41:29;;;;;;;3.23;2.43;;;;;;;1.64;97.63;101023.56;4925936;29;20751;-78
2022/10/24 00:44:16;;;;;;;3.03;2.00;;;;;;;1.71;97.14;101043.22;4922056;29;20469;-77
2022/10/24 00:46:50;;;;;;;2.93;2.00;;;;;;;1.60;97.43;101043.06;4925604;29;20289;-77
2022/10/24 00:49:20;;;;;;;2.50;1.83;;;;;;;1.60;97.69;101040.44;4922873;29;20331;-77
2022/10/24 00:51:49;;;;;;;3.77;1.87;;;;;;;1.63;97.46;101040.25;4922298;29;20276;-76
2022/10/24 00:54:16;;;;;;;3.57;1.70;;;;;;;1.67;97.79;101050.44;4919448;29;20768;-76
2022/10/24 00:56:49;;;;;;;5.00;1.60;;;;;;;1.65;97.23;101046.22;4918929;29;20261;-77
2022/10/24 00:59:16;;;;;;;4.23;1.80;;;;;;;1.57;97.24;101040.66;4918275;29;20381;-77
2022/10/24 01:01:43;;;;;;;2.73;1.83;;;;;;;1.63;97.05;101050.75;4918151;29;20256;-78
2022/10/24 01:04:12;;;;;;;4.03;1.70;;;;;;;1.69;97.03;101050.34;4918489;29;20260;-78
2022/10/24 01:07:26;;;;;;;3.13;1.90;;;;;;;1.62;96.70;101054.31;4919240;29;20264;-79
2022/10/24 01:10:11;;;;;;;2.90;1.73;;;;;;;1.68;96.72;101061.78;4897235;29;20056;-77
2022/10/24 01:13:01;;;;;;;3.27;1.97;;;;;;;1.67;96.95;101062.72;4902597;29;20712;-77
2022/10/24 01:15:42;;;;;;;3.57;2.97;;;;;;;1.63;97.05;101061.25;4918557;29;20265;-76
2022/10/24 01:18:19;;;;;;;3.77;1.83;;;;;;;1.64;96.74;101069.03;4903703;29;20323;-77
2022/10/24 01:21:04;;;;;;;3.03;2.07;;;;;;;1.57;97.17;101062.47;4920235;29;20444;-75
2022/10/24 01:23:48;;;;;;;3.23;1.80;;;;;;;1.54;97.30;101074.03;4920552;29;20283;-77
2022/10/24 01:26:38;;;;;;;2.37;2.07;;;;;;;1.50;97.60;101080.41;4920121;29;20276;-76
2022/10/24 01:29:37;;;;;;;2.10;1.90;;;;;;;1.45;97.82;101079.88;4920371;29;20321;-77
2022/10/24 01:32:09;;;;;;;;;;;;;;;1.48;97.83;101084.06;4920001;29;20367;-76
2022/10/24 01:34:48;;;;;;;5.40;2.10;;;;;;;1.42;98.16;101076.56;4920288;29;19986;-75
2022/10/24 01:37:36;;;;;;;1.73;1.60;;;;;;;1.42;97.92;101090.53;4919267;29;20257;-75
2022/10/24 01:40:10;;;;;;;3.30;1.80;;;;;;;1.24;98.31;101071.53;4895375;29;20036;-78
2022/10/24 01:42:39;;;;;;;2.10;1.90;;;;;;;1.35;98.07;101091.00;4921264;29;20385;-75
2022/10/24 01:45:08;;;;;;;3.40;2.00;;;;;;;1.29;98.74;101083.53;4916640;29;20272;-77
2022/10/24 01:47:40;;;;;;;3.75;1.80;;;;;;;1.32;98.45;101089.44;4917405;29;20275;-79
2022/10/24 01:50:10;;;;;;;4.47;2.20;;;;;;;1.26;98.63;101092.44;4932205;29;20152;-78
2022/10/24 01:52:40;;;;;;;2.33;1.67;;;;;;;1.31;98.87;101092.16;4926092;29;20259;-78
2022/10/24 01:55:06;;;;;;;2.20;1.63;;;;;;;1.31;99.21;101092.16;4919224;29;20271;-77
2022/10/24 01:57:33;;;;;;;3.00;1.70;;;;;;;1.15;98.56;101071.25;4918287;29;20641;-77
2022/10/24 02:00:00;;;;;;;2.47;2.10;;;;;;;1.33;98.97;101101.59;4901884;29;20716;-77
2022/10/24 02:02:46;;;;;;;4.70;1.93;;;;;;;1.34;98.71;101113.78;4921615;29;20275;-77
2022/10/24 02:05:24;;;;;;;2.33;1.60;;;;;;;1.27;98.81;101107.25;4903535;29;20267;-76
2022/10/24 02:07:59;;;;;;;4.00;1.77;;;;;;;1.33;98.75;101124.38;4919380;29;20283;-77
2022/10/24 02:10:29;;;;;;;2.57;2.13;;;;;;;1.18;99.02;101102.56;4932074;29;20284;-77
2022/10/24 02:13:07;;;;;;;4.07;1.80;;;;;;;1.18;99.24;101102.56;4941023;29;20283;-77
2022/10/24 02:15:39;;;;;;;2.30;1.87;;;;;;;1.22;99.16;101120.66;4940460;29;20390;-78
2022/10/24 02:18:06;;;;;;;4.33;2.43;;;;;;;1.24;99.14;101133.66;4926063;29;20350;-75
2022/10/24 02:20:41;;;;;;;2.77;2.23;;;;;;;1.22;99.45;101136.38;4902795;29;20256;-75
2022/10/24 02:23:17;;;;;;;2.93;1.97;;;;;;;1.16;99.12;101126.28;4918481;29;20328;-76
2022/10/24 02:25:50;;;;;;;4.27;1.80;;;;;;;1.20;99.42;101135.63;4918694;29;20631;-76
2022/10/24 02:28:21;;;;;;;6.13;2.83;;;;;;;1.16;99.76;101141.16;4919112;29;20336;-76
2022/10/24 02:30:59;;;;;;;3.57;1.90;;;;;;;1.18;99.97;101134.06;4917884;29;20260;-77
2022/10/24 02:33:27;;;;;;;1.90;1.63;;;;;;;0.89;99.74;101097.31;4918748;29;20296;-76
2022/10/24 02:35:55;;;;;;;3.83;1.80;;;;;;;1.14;99.47;101140.38;4918197;29;20081;-78
2022/10/24 02:38:25;;;;;;;4.13;2.40;;;;;;;1.13;99.91;101143.94;4916993;29;20625;-78
2022/10/24 02:40:52;;;;;;;2.97;1.90;;;;;;;1.10;99.85;101141.50;4916850;29;20609;-77
2022/10/24 02:43:20;;;;;;;4.20;1.90;;;;;;;0.98;99.64;101131.78;4916719;29;20339;-78
2022/10/24 02:45:50;;;;;;;4.93;2.30;;;;;;;1.12;100.00;101152.75;4916794;29;20283;-76
2022/10/24 02:48:21;;;;;;;3.25;1.98;;;;;;;1.10;99.75;101152.00;4916916;29;20349;-77
2022/10/24 02:50:47;;;;;;;6.27;2.47;;;;;;;1.07;100.00;101158.28;4900437;29;20032;-76
2022/10/24 02:53:14;;;;;;;3.93;3.00;;;;;;;1.05;100.00;101157.53;4916913;29;20736;-78
2022/10/24 02:55:40;;;;;;;4.83;1.97;;;;;;;1.03;100.00;101162.03;4899784;29;20268;-76
2022/10/24 02:58:06;;;;;;;5.10;2.27;;;;;;;1.05;100.00;101172.44;4916676;29;20654;-77
2022/10/24 03:00:32;;;;;;;2.60;1.80;;;;;;;1.02;100.00;101167.38;4916604;29;20333;-76
2022/10/24 03:02:57;;;;;;;4.67;2.20;;;;;;;1.02;100.00;101172.63;4899594;29;20384;-78
2022/10/24 03:05:23;;;;;;;4.87;2.43;;;;;;;0.98;100.00;101171.13;4916779;29;20541;-77
2022/10/24 03:07:48;;;;;;;3.10;2.23;;;;;;;0.97;100.00;101167.66;4917084;29;20368;-76
2022/10/24 03:10:14;;;;;;;5.73;3.70;;;;;;;0.85;100.00;101150.00;4916816;29;20040;-75
2022/10/24 03:12:39;;;;;;;3.37;2.00;;;;;;;0.96;100.00;101165.13;4916386;29;20464;-79
2022/10/24 03:15:06;;;;;;;4.20;1.90;;;;;;;0.96;100.00;101173.00;4902914;29;20028;-77
2022/10/24 03:17:57;;;;;;;2.77;1.80;;;;;;;0.96;100.00;101165.97;4939427;29;20036;-77
2022/10/24 03:20:23;;;;;;;2.67;1.90;;;;;;;0.91;100.00;101168.88;4934885;29;20272;-75
2022/10/24 03:22:49;;;;;;;5.57;2.10;;;;;;;0.83;100.00;101168.44;4922510;29;20028;-78
2022/10/24 03:25:19;;;;;;;5.40;2.77;;;;;;;0.90;100.00;101193.41;4921080;29;20300;-76
2022/10/24 03:27:45;;;;;;;3.57;2.20;;;;;;;0.86;100.00;101197.09;4921317;29;20036;-77
2022/10/24 03:30:11;;;;;;;2.97;2.07;;;;;;;0.83;100.00;101202.53;4920880;29;20271;-77
2022/10/24 03:32:37;;;;;;;4.67;2.20;;;;;;;0.70;100.00;101179.75;4903304;29;20082;-76
2022/10/24 03:35:03;;;;;;;3.00;1.90;;;;;;;0.83;100.00;101192.06;4920125;29;20760;-77
2022/10/24 03:37:29;;;;;;;2.70;1.93;;;;;;;0.77;100.00;101195.03;4920094;29;20039;-76
2022/10/24 03:39:54;;;;;;;5.10;2.60;;;;;;;0.56;100.00;101163.03;4920412;29;20261;-77
2022/10/24 03:42:20;;;;;;;3.90;2.00;;;;;;;0.79;100.00;101195.78;4920277;29;20032;-78
2022/10/24 03:44:46;;;;;;;8.53;4.97;;;;;;;0.82;100.00;101211.34;4903061;29;20061;-78
2022/10/24 03:47:11;;;;;;;4.23;2.23;;;;;;;0.73;100.00;101195.31;4903155;29;20035;-75
2022/10/24 03:49:37;;;;;;;2.43;2.23;;;;;;;0.77;100.00;101213.38;4920544;29;20342;-77
2022/10/24 03:52:03;;;;;;;5.73;2.57;;;;;;;0.70;100.00;101209.44;4919733;29;20063;-76
2022/10/24 03:54:28;;;;;;;7.23;2.40;;;;;;;0.68;100.00;101199.97;4920002;29;20031;-77
2022/10/24 03:56:55;;;;;;;5.53;2.40;;;;;;;0.70;100.00;101206.81;4920407;29;20794;-76
2022/10/24 03:59:21;;;;;;;4.53;2.40;;;;;;;0.66;100.00;101201.84;4920197;29;20043;-75
2022/10/24 04:01:46;;;;;;;3.27;2.67;;;;;;;0.67;100.00;101216.63;4920219;29;20619;-76
2022/10/24 04:04:12;;;;;;;3.60;2.83;;;;;;;0.62;100.00;101206.44;4918178;29;20032;-77
2022/10/24 04:06:39;;;;;;;5.67;2.50;;;;;;;0.59;100.00;101215.31;4925768;29;20025;-77
2022/10/24 04:09:05;;;;;;;3.97;2.63;;;;;;;0.65;100.00;101224.59;4935011;29;20039;-77
2022/10/24 04:11:31;;;;;;;4.43;3.10;;;;;;;0.61;100.00;101217.84;4926068;29;20359;-76
2022/10/24 04:13:56;;;;;;;3.23;2.73;;;;;;;0.68;100.00;101234.06;4919007;29;20382;-74
2022/10/24 04:16:22;;;;;;;6.77;3.00;;;;;;;0.66;100.00;101234.16;4920038;29;20039;-74
2022/10/24 04:18:51;;;;;;;5.07;3.07;;;;;;;0.61;100.00;101229.16;4919005;29;20036;-74
2022/10/24 04:21:42;;;;;;;4.10;2.33;;;;;;;0.62;100.00;101237.88;4888251;29;20410;-77
2022/10/24 04:28:09;;;;;;;4.47;2.97;;;;;;;0.44;100.00;101210.09;4918467;29;20055;-76
2022/10/24 04:30:35;;;;;;;7.10;2.70;;;;;;;0.62;100.00;101230.00;4918468;29;20284;-76
2022/10/24 04:33:00;;;;;;;6.30;3.20;;;;;;;0.49;100.00;101205.41;4902617;29;20168;-75
2022/10/24 04:35:26;;;;;;;6.87;2.80;;;;;;;0.73;100.00;101237.25;4919369;29;20033;-75
2022/10/24 04:37:54;;;;;;;6.87;3.13;;;;;;;0.68;100.00;101237.53;4919540;29;20393;-77
2022/10/24 04:40:53;;;;;;;5.05;2.75;;;;;;;0.76;100.00;101253.66;4918827;29;20076;-79
2022/10/24 04:43:59;;;;;;;6.10;3.00;;;;;;;0.77;100.00;101238.75;4902755;29;20035;-81
2022/10/24 04:46:54;;;;;;;5.87;3.20;;;;;;;0.81;100.00;101241.13;4859558;29;20346;-74
2022/10/24 04:49:40;;;;;;;5.27;2.83;;;;;;;0.63;100.00;101204.66;4852140;29;20280;-76
2022/10/24 04:52:11;;;;;;;8.87;3.30;;;;;;;0.51;100.00;101193.91;4918418;29;20252;-76
2022/10/24 04:54:36;;;;;;;9.00;5.17;;;;;;;0.63;100.00;101215.97;4918697;29;20036;-77
2022/10/24 05:00:55;;;;;;;7.50;3.03;;;;;;;0.87;100.00;101230.28;4900453;29;20056;-77
2022/10/24 05:03:22;;;;;;;8.30;3.00;;;;;;;0.87;100.00;101230.28;4916031;29;20323;-78
2022/10/24 05:05:48;;;;;;;7.60;3.47;;;;;;;0.93;100.00;101239.56;4919507;29;20268;-76
2022/10/24 05:08:15;;;;;;;7.60;3.30;;;;;;;0.91;100.00;101239.66;4919102;29;20260;-77
2022/10/24 05:10:41;;;;;;;7.47;4.23;;;;;;;0.84;100.00;101233.06;4919921;29;20256;-77
2022/10/24 05:13:07;;;;;;;7.53;4.10;;;;;;;0.93;100.00;101250.91;4918705;29;20292;-77
2022/10/24 05:15:51;;;;;;;12.80;6.40;;;;;;;0.96;100.00;101238.56;4917924;29;20028;-76
2022/10/24 05:18:25;;;;;;;10.87;5.80;;;;;;;1.06;100.00;101258.06;4899289;29;20126;-77
2022/10/24 05:23:56;;;;;;;11.67;5.67;;;;;;;0.80;100.00;101202.72;4889292;29;20313;-76
2022/10/24 05:26:24;;;;;;;12.93;6.47;;;;;;;0.88;100.00;101221.50;4901057;29;20252;-79
2022/10/24 05:28:50;;;;;;;11.25;5.20;;;;;;;1.12;100.00;101255.06;4918472;29;20280;-75
2022/10/24 05:31:16;;;;;;;9.07;4.77;;;;;;;1.18;100.00;101266.06;4918353;29;20034;-76
2022/10/24 05:33:41;;;;;;;10.63;4.17;;;;;;;1.22;100.00;101269.34;4917792;29;20043;-78
2022/10/24 05:36:07;;;;;;;12.63;5.33;;;;;;;1.27;100.00;101272.53;4917768;29;20032;-84
2022/10/24 05:38:51;;;;;;;6.77;4.40;;;;;;;1.02;100.00;101238.19;4919990;29;20071;-82
2022/10/24 05:41:38;;;;;;;9.73;4.17;;;;;;;1.39;100.00;101289.34;4901731;29;20620;-81
2022/10/24 05:44:17;;;;;;;9.77;4.70;;;;;;;1.33;100.00;101273.97;4901006;29;20924;-81
2022/10/24 05:46:42;;;;;;;12.07;5.25;;;;;;;1.47;100.00;101293.22;4918984;29;20537;-78
2022/10/24 05:49:14;;;;;;;13.40;4.07;;;;;;;1.51;100.00;101293.88;4919931;29;20079;-78
2022/10/24 05:51:42;;;;;;;8.57;4.10;;;;;;;1.49;100.00;101291.34;4901016;29;20069;-79
2022/10/24 05:54:31;;;;;;;7.07;4.55;;;;;;;1.65;100.00;101285.16;4900593;29;20364;-78
2022/10/24 05:57:08;;;;;;;15.77;4.63;;;;;;;1.64;100.00;101275.59;4901896;29;20414;-78
2022/10/24 05:59:43;;;;;;;7.90;3.63;;;;;;;1.43;99.74;101254.94;4917234;29;20268;-79
2022/10/24 06:02:20;;;;;;;9.17;3.60;;;;;;;1.45;99.54;101253.09;4900549;29;20272;-78
2022/10/24 06:04:45;;;;;;;9.83;3.30;;;;;;;1.80;98.73;101306.09;4918878;29;20344;-80
2022/10/24 06:07:14;;;;;;;8.50;3.20;;;;;;;1.88;98.90;101310.88;4901515;29;20276;-78
2022/10/24 06:09:40;;;;;;;8.48;3.70;;;;;;;1.82;97.70;101308.63;4919722;29;20114;-80
2022/10/24 06:12:08;;;;;;;8.20;2.40;;;;;;;1.85;97.33;101313.69;4918551;29;20118;-78
2022/10/24 06:14:37;;;;;;;5.50;2.10;;;;;;;1.86;96.45;101315.38;4900396;29;20307;-78
2022/10/24 06:17:10;;;;;;;4.27;2.47;;;;;;;1.90;96.13;101326.53;4917173;29;20065;-75
2022/10/24 06:19:43;;;;;;;7.07;3.00;;;;;;;1.94;95.57;101326.25;4916278;29;20276;-77
2022/10/24 06:22:18;;;;;;;5.90;2.17;;;;;;;1.82;94.94;101304.22;4916489;29;20307;-80
2022/10/24 06:24:44;;;;;;;9.20;2.80;;;;;;;1.89;94.74;101309.94;4917376;29;20260;-79
2022/10/24 06:27:12;;;;;;;6.67;2.83;;;;;;;2.05;94.76;101330.88;4917302;29;20621;-80
2022/10/24 06:29:37;;;;;;;8.18;2.60;;;;;;;2.06;94.87;101338.66;4901829;29;20032;-76
2022/10/24 06:32:03;;;;;;;5.60;2.03;;;;;;;2.09;94.52;101342.88;4921979;29;20492;-79
2022/10/24 06:34:29;;;;;;;3.37;2.53;;;;;;;2.16;94.65;101344.19;4918769;29;20036;-76
2022/10/24 06:36:57;;;;;;;5.23;2.57;;;;;;;2.22;94.57;101343.78;4918438;29;20059;-76
2022/10/24 06:39:23;;;;;;;4.00;2.20;;;;;;;2.15;94.31;101327.56;4918554;29;20464;-78
2022/10/24 06:41:49;;;;;;;5.77;2.77;;;;;;;2.33;93.93;101330.00;4917446;29;20385;-76
2022/10/24 06:57:00;;;;;;;6.10;1.90;;;;;;;2.40;92.18;101353.19;5870942;23;20450;-77
2022/10/24 06:59:29;;;;;;;3.77;1.70;;;;;;;2.38;92.64;101344.53;4916829;29;20702;-77
2022/10/24 07:01:55;;;;;;;3.00;2.07;;;;;;;2.44;91.90;101362.56;4916118;29;20284;-78
2022/10/24 07:04:20;;;;;;;4.50;1.93;;;;;;;2.46;91.44;101358.03;4917252;29;20032;-76
2022/10/24 07:06:46;;;;;;;7.13;2.20;;;;;;;2.41;91.06;101348.75;4917256;29;20024;-77
2022/10/24 07:09:12;;;;;;;8.40;2.27;;;;;;;2.47;90.87;101359.72;4917598;29;20032;-77
2022/10/24 07:11:37;;;;;;;5.20;2.00;;;;;;;2.52;90.66;101359.44;4917429;29;20043;-76
2022/10/24 07:14:04;;;;;;;5.93;2.73;;;;;;;2.47;90.44;101354.47;4899350;29;20100;-76
2022/10/24 07:16:33;;;;;;;8.50;2.40;;;;;;;2.46;90.13;101365.09;4917010;29;20107;-75
2022/10/24 07:18:58;;;;;;;5.00;2.00;;;;;;;2.37;89.10;101355.16;4900008;29;20278;-76
2022/10/24 07:21:27;;;;;;;8.00;2.17;;;;;;;2.37;89.57;101370.94;4915436;29;20396;-76
2022/10/24 07:23:57;;;;;;;4.47;2.00;;;;;;;2.33;89.55;101367.66;4916560;29;20433;-76
2022/10/24 07:26:24;;;;;;;7.57;2.40;;;;;;;2.21;89.80;101346.50;4921341;29;20765;-77
2022/10/24 07:29:08;;;;;;;2.83;1.80;;;;;;;2.35;89.93;101365.75;4931426;29;20562;-76
2022/10/24 07:31:35;;;;;;;4.40;2.23;;;;;;;2.43;89.29;101370.53;4914075;29;20301;-77
2022/10/24 07:34:07;;;;;;;3.87;2.20;;;;;;;2.56;88.25;101384.59;4932156;29;20292;-76
2022/10/24 07:36:33;;;;;;;8.47;2.50;;;;;;;2.62;88.12;101380.75;4919697;29;20273;-76
2022/10/24 07:38:59;;;;;;;9.60;2.30;;;;;;;2.66;87.30;101385.72;4894903;29;20268;-78
2022/10/24 07:41:32;;;;;;;8.20;2.10;;;;;;;2.64;86.77;101377.09;4924662;29;20039;-78
2022/10/24 07:47:58;;;;;;;8.60;2.07;;;;;;;2.66;84.84;101348.91;4927121;29;20286;-76
2022/10/24 07:50:59;;;;;;;4.37;2.10;;;;;;;2.74;85.40;101357.16;4911526;29;20343;-80
2022/10/24 07:53:26;;;;;;;7.77;2.20;;;;;;;2.99;83.45;101397.69;4927148;29;20292;-74
2022/10/24 07:55:54;;;;;;;4.63;2.20;;;;;;;2.99;84.69;101381.88;4928872;29;20351;-79
2022/10/24 07:58:21;;;;;;;2.97;1.98;;;;;;;2.89;84.69;101367.63;4913103;29;20404;-76
2022/10/24 08:00:47;;;;;;;5.13;2.10;;;;;;;3.05;83.74;101400.75;4931687;29;20032;-77
2022/10/24 08:03:12;;;;;;;6.57;2.23;;;;;;;3.10;84.59;101401.28;4918606;29;20284;-79
2022/10/24 08:05:39;;;;;;;6.57;1.73;;;;;;;3.07;83.61;101400.66;4918996;29;20042;-76
2022/10/24 08:08:10;;;;;;;5.43;2.10;;;;;;;3.06;82.84;101396.31;4920623;29;20035;-77
2022/10/24 08:10:37;;;;;;;8.03;1.97;;;;;;;3.04;83.89;101403.47;4903125;29;20808;-78
2022/10/24 08:13:27;;;;;;;5.27;1.83;;;;;;;2.98;83.12;101409.13;4914239;29;20312;-78
2022/10/24 08:16:41;;;;;;;8.93;2.00;;;;;;;2.57;82.79;101344.22;4933785;29;20272;-78
2022/10/24 08:22:32;;;;;;;;;;;;;;;2.84;84.04;101403.91;4926696;29;20364;-76
2022/10/24 08:28:56;;;;;;;3.73;1.80;;;;;;;2.64;83.40;101392.03;4920091;29;20283;-77
2022/10/24 08:31:37;;;;;;;10.17;2.80;;;;;;;2.63;82.96;101370.16;4905214;29;20351;-76
2022/10/24 08:34:04;;;;;;;3.50;2.40;;;;;;;2.97;81.57;101404.81;4921093;29;20806;-75
2022/10/24 08:36:33;;;;;;;4.83;2.10;;;;;;;3.11;81.49;101417.94;4919798;29;20657;-78
2022/10/24 08:39:00;;;;;;;4.45;2.42;;;;;;;3.24;80.98;101421.47;4919831;29;20253;-77
2022/10/24 08:41:37;;;;;;;5.47;2.10;;;;;;;3.37;80.41;101419.72;4920262;29;20024;-77
2022/10/24 08:44:18;;;;;;;7.93;2.17;;;;;;;3.43;80.61;101413.19;4927052;29;20272;-78
2022/10/24 08:47:18;;;;;;;3.77;2.20;;;;;;;3.55;80.02;101416.84;4921150;29;20272;-75
2022/10/24 08:50:24;;;;;;;3.13;1.80;;;;;;;3.58;77.87;101420.09;4918498;29;20282;-78
2022/10/24 08:53:04;;;;;;;6.33;2.03;;;;;;;3.61;77.62;101424.31;4916337;29;20280;-77
2022/10/24 08:55:45;;;;;;;3.17;1.93;;;;;;;3.62;76.79;101441.81;4920954;29;20278;-76
2022/10/24 08:58:17;;;;;;;6.03;1.70;;;;;;;3.56;75.11;101419.34;4918633;29;20787;-75
2022/10/24 09:00:45;;;;;;;2.97;1.60;;;;;;;3.75;74.89;101424.22;4920984;29;20700;-78
2022/10/24 09:03:13;;;;;;;5.78;2.20;;;;;;;3.97;75.48;101437.66;4924050;29;20642;-77
2022/10/24 09:05:53;;;;;;;3.38;1.65;;;;;;;4.04;74.44;101431.00;4924075;29;20032;-75
2022/10/24 09:08:29;;;;;;;2.73;1.40;;;;;;;4.27;73.62;101441.78;4922521;29;20062;-75
2022/10/24 09:11:04;;;;;;;5.27;1.70;;;;;;;4.42;73.67;101442.53;4920559;29;20271;-77
2022/10/24 09:13:32;;;;;;;6.47;2.00;;;;;;;4.43;73.38;101442.44;4919429;29;20395;-82
2022/10/24 09:15:58;;;;;;;4.40;1.77;;;;;;;4.41;73.60;101446.97;4919246;29;20351;-77
2022/10/24 09:18:45;;;;;;;6.27;2.00;;;;;;;4.45;73.47;101448.44;4919587;29;20064;-77
2022/10/24 09:21:13;;;;;;;5.27;1.87;;;;;;;4.54;73.34;101450.44;4920074;29;20024;-77
2022/10/24 09:23:41;;;;;;;5.30;1.83;;;;;;;4.50;73.35;101454.25;4919203;29;20340;-75
2022/10/24 09:26:14;;;;;;;17.30;2.30;;;;;;;4.47;73.20;101448.34;4919651;29;20608;-76
2022/10/24 09:28:40;;;;;;;4.70;1.87;;;;;;;4.32;74.21;101448.44;4919876;29;20289;-76
2022/10/24 09:31:20;;;;;;;8.57;2.27;;;;;;;4.12;75.11;101454.25;4919124;29;20577;-77
2022/10/24 09:33:49;;;;;;;5.77;2.20;;;;;;;4.00;76.24;101447.16;4919614;29;20813;-75
2022/10/24 09:36:16;;;;;;;6.70;2.25;;;;;;;4.04;76.27;101467.06;4920024;29;20738;-79
2022/10/24 09:38:43;;;;;;;6.63;2.00;;;;;;;4.01;76.64;101456.75;4923845;29;20036;-78
2022/10/24 09:41:24;;;;;;;3.90;1.93;;;;;;;3.93;76.69;101457.25;4905494;29;20295;-75
2022/10/24 09:43:54;;;;;;;10.60;3.77;;;;;;;4.00;76.48;101468.22;4927870;29;20256;-76
2022/10/24 09:46:24;;;;;;;19.77;3.37;;;;;;;4.03;76.42;101466.22;4925766;29;20264;-78
2022/10/24 09:48:49;;;;;;;;;;;;;;;4.08;76.68;101476.50;4918894;29;20279;-77
2022/10/24 09:51:30;;;;;;;3.70;1.60;;;;;;;3.96;76.57;101459.69;4917055;29;19911;-75
2022/10/24 09:54:13;;;;;;;4.23;2.33;;;;;;;3.95;77.89;101475.59;4918011;29;20464;-76
2022/10/24 09:56:40;;;;;;;3.87;1.73;;;;;;;3.90;77.25;101475.91;4917537;29;20261;-78
2022/10/24 09:59:37;;;;;;;3.73;1.63;;;;;;;3.95;77.44;101479.09;4917938;29;20316;-78
2022/10/24 10:02:09;;;;;;;4.93;2.17;;;;;;;3.97;77.18;101477.19;4917893;29;20678;-75
2022/10/24 10:04:35;;;;;;;2.47;2.13;;;;;;;4.07;76.57;101466.06;4917751;29;20275;-78
2022/10/24 10:07:09;;;;;;;5.10;1.60;;;;;;;4.15;76.40;101471.63;4918645;29;20264;-76
2022/10/24 10:09:54;;;;;;;3.93;1.90;;;;;;;4.14;75.60;101467.31;4901255;29;20267;-78
2022/10/24 10:13:11;;;;;;;5.30;2.17;;;;;;;4.16;75.20;101481.22;4915975;29;20268;-76
2022/10/24 10:15:45;;;;;;;5.13;2.00;;;;;;;4.08;75.49;101468.59;4884414;29;20709;-78
2022/10/24 10:18:32;;;;;;;5.77;1.73;;;;;;;4.10;75.12;101476.38;4921358;29;20261;-78
2022/10/24 10:21:03;;;;;;;3.37;1.90;;;;;;;3.97;75.42;101466.66;4917671;29;20274;-78
2022/10/24 10:23:35;;;;;;;4.97;2.97;;;;;;;4.00;76.24;101476.97;4900169;29;20300;-78
2022/10/24 10:26:16;;;;;;;9.43;2.13;;;;;;;4.06;76.55;101483.66;4917172;29;20280;-78
2022/10/24 10:28:45;;;;;;;3.73;1.80;;;;;;;4.11;76.27;101493.88;4899741;29;20288;-76
2022/10/24 10:31:11;;;;;;;;;;;;;;;4.21;76.49;101490.50;4916581;29;20259;-78
2022/10/24 10:33:54;;;;;;;9.37;3.80;;;;;;;4.26;75.52;101488.41;4917521;29;19911;-77
2022/10/24 10:36:30;;;;;;;5.60;2.80;;;;;;;4.32;74.73;101492.41;4916364;29;20044;-77
2022/10/24 10:39:28;;;;;;;3.43;2.33;;;;;;;4.40;74.82;101495.41;4917879;29;20268;-78
2022/10/24 10:42:05;;;;;;;7.27;2.00;;;;;;;4.33;74.66;101465.09;4908473;29;20284;-80
2022/10/24 10:44:43;;;;;;;2.93;2.00;;;;;;;4.64;73.34;101483.16;4917386;29;20264;-76
2022/10/24 10:47:12;;;;;;;3.38;2.15;;;;;;;4.98;72.92;101496.63;4899935;29;20268;-76
2022/10/24 10:49:40;;;;;;;4.38;2.00;;;;;;;5.10;71.89;101474.63;4916917;29;20040;-77
2022/10/24 10:52:24;;;;;;;8.20;2.70;;;;;;;5.36;71.17;101500.94;4916909;29;20028;-75
2022/10/24 10:55:05;;;;;;;3.23;1.87;;;;;;;5.33;69.08;101502.00;4916330;29;20295;-77
2022/10/24 10:57:50;;;;;;;2.13;1.67;;;;;;;5.22;70.41;101496.66;4916437;29;20295;-78
2022/10/24 11:00:30;;;;;;;4.57;1.93;;;;;;;5.11;70.02;101491.28;4916954;29;20332;-76
2022/10/24 11:03:30;;;;;;;7.10;2.27;;;;;;;5.07;72.07;101479.28;4916474;29;20359;-78
2022/10/24 11:06:34;;;;;;;8.07;2.40;;;;;;;5.04;72.74;101490.06;4917329;29;20272;-75
2022/10/24 11:09:07;;;;;;;3.53;2.30;;;;;;;5.01;72.30;101483.19;4917132;29;20322;-76
2022/10/24 11:11:37;;;;;;;8.87;2.63;;;;;;;4.98;72.93;101492.19;4917696;29;20264;-77
2022/10/24 11:14:51;;;;;;;3.97;1.87;;;;;;;5.00;72.31;101494.72;4917186;29;20387;-76
2022/10/24 11:17:29;;;;;;;4.37;2.10;;;;;;;5.02;71.83;101487.53;4912108;29;20280;-78
2022/10/24 11:20:07;;;;;;;1.98;1.75;;;;;;;5.24;71.37;101500.88;4916974;29;20324;-77
2022/10/24 11:22:41;;;;;;;9.73;2.40;;;;;;;5.41;71.28;101498.81;4916720;29;20119;-78
2022/10/24 11:25:40;;;;;;;5.03;2.77;;;;;;;5.71;70.89;101496.56;4916812;29;20043;-78
2022/10/24 11:28:20;;;;;;;8.95;2.15;;;;;;;5.89;69.40;101497.00;4915083;29;20305;-78
2022/10/24 11:30:59;;;;;;;5.23;1.87;;;;;;;5.96;70.02;101489.50;4916480;29;20048;-77
2022/10/24 11:33:41;;;;;;;6.53;2.20;;;;;;;5.85;70.25;101499.03;4916712;29;20348;-78
2022/10/24 11:36:15;;;;;;;5.63;1.93;;;;;;;5.56;70.50;101487.13;4900190;29;20268;-77
2022/10/24 11:38:54;;;;;;;7.63;2.33;;;;;;;5.38;70.04;101493.75;4915863;29;20300;-79
2022/10/24 11:41:33;;;;;;;6.90;2.17;;;;;;;5.32;70.23;101494.19;4903653;29;20272;-76
2022/10/24 11:44:11;;;;;;;2.95;1.75;;;;;;;5.27;70.58;101497.19;4920361;29;20276;-75
2022/10/24 11:46:43;;;;;;;4.10;2.20;;;;;;;5.25;72.02;101488.53;4903682;29;20039;-80
2022/10/24 11:49:14;;;;;;;6.97;2.20;;;;;;;5.25;71.07;101489.38;4919805;29;20036;-77
2022/10/24 11:51:46;;;;;;;4.93;1.93;;;;;;;5.07;71.04;101476.63;4922847;29;20248;-78
2022/10/24 11:54:17;;;;;;;4.97;2.37;;;;;;;5.20;71.61;101491.50;4922102;29;20315;-76
2022/10/24 11:56:55;;;;;;;2.60;2.17;;;;;;;5.11;71.88;101486.84;4906255;29;20282;-77
2022/10/24 11:59:24;;;;;;;3.67;2.20;;;;;;;5.17;71.67;101477.66;4905537;29;20615;-75
2022/10/24 12:02:11;;;;;;;7.37;2.43;;;;;;;5.15;71.28;101479.56;4903809;29;20273;-76
2022/10/24 12:05:14;;;;;;;5.77;2.10;;;;;;;5.32;71.52;101496.84;4906888;29;20268;-77
2022/10/24 12:07:58;;;;;;;3.67;1.90;;;;;;;5.34;71.69;101492.28;4905892;29;20737;-74
2022/10/24 12:10:44;;;;;;;4.93;2.40;;;;;;;5.36;70.85;101487.75;4907168;29;20058;-74
2022/10/24 12:13:19;;;;;;;6.17;1.70;;;;;;;5.27;70.34;101492.75;4911422;29;20319;-76
2022/10/24 12:16:18;;;;;;;9.80;3.20;;;;;;;5.31;72.02;101492.50;4912482;29;20272;-74
2022/10/24 12:18:48;;;;;;;6.07;2.17;;;;;;;5.35;72.10;101483.41;4913169;29;20298;-78
2022/10/24 12:21:24;;;;;;;4.77;1.80;;;;;;;5.40;72.00;101483.91;4913759;29;20340;-76
2022/10/24 12:24:00;;;;;;;4.07;1.90;;;;;;;5.38;72.82;101489.31;4911687;29;20292;-77
2022/10/24 12:26:33;;;;;;;7.97;2.13;;;;;;;5.31;71.27;101488.06;4908181;29;20813;-77
2022/10/24 12:29:02;;;;;;;4.10;2.17;;;;;;;5.31;72.28;101497.78;4907727;29;20269;-77
2022/10/24 12:31:31;;;;;;;5.63;1.93;;;;;;;5.25;73.23;101484.09;4911176;29;20257;-76
2022/10/24 12:34:15;;;;;;;5.28;1.70;;;;;;;5.27;74.34;101492.75;4914092;29;20299;-76